createdAt,value
2019-02-27T00:00:20.376Z,4.30
2019-02-27T00:02:48.912Z,4.20
2019-02-27T00:05:17.438Z,4.20
2019-02-27T00:07:45.923Z,4.20
2019-02-27T00:10:14.458Z,4.10
2019-02-27T00:12:42.942Z,4.20
2019-02-27T00:15:11.475Z,4.20
2019-02-27T00:17:40.015Z,4.20
2019-02-27T00:20:08.834Z,4.10
2019-02-27T00:22:37.362Z,4.10
2019-02-27T00:25:06.184Z,4.00
2019-02-27T00:27:34.734Z,3.90
2019-02-27T00:30:05.737Z,3.90
2019-02-27T00:32:34.174Z,3.90
2019-02-27T00:35:06.469Z,3.90
2019-02-27T00:37:32.886Z,3.90
2019-02-27T00:40:05.273Z,3.90
2019-02-27T00:42:33.751Z,3.90
2019-02-27T00:45:01.875Z,3.90
2019-02-27T00:47:30.438Z,4.00
2019-02-27T00:49:58.986Z,3.90
2019-02-27T00:52:27.629Z,3.90
2019-02-27T00:54:56.186Z,3.80
2019-02-27T00:57:24.721Z,3.80
2019-02-27T00:59:53.255Z,3.80
2019-02-27T01:02:21.743Z,3.70
2019-02-27T01:04:50.360Z,3.70
2019-02-27T01:07:20.749Z,3.70
2019-02-27T01:10:11.982Z,3.70
2019-02-27T01:12:39.903Z,3.70
2019-02-27T01:15:13.678Z,3.70
2019-02-27T01:17:42.779Z,3.60
2019-02-27T01:20:15.235Z,3.60
2019-02-27T01:22:43.971Z,3.60
2019-02-27T01:25:12.870Z,3.60
2019-02-27T01:27:41.391Z,3.60
2019-02-27T01:30:17.515Z,3.50
2019-02-27T01:32:46.290Z,3.40
2019-02-27T01:35:18.192Z,3.40
2019-02-27T01:37:45.381Z,3.30
2019-02-27T01:40:17.924Z,3.30
2019-02-27T01:42:45.380Z,3.10
2019-02-27T01:45:20.721Z,3.00
2019-02-27T01:47:46.219Z,3.00
2019-02-27T01:50:33.136Z,2.90
2019-02-27T01:53:01.839Z,2.80
2019-02-27T01:55:30.434Z,2.70
2019-02-27T01:57:59.164Z,2.70
2019-02-27T02:00:27.762Z,2.70
2019-02-27T02:02:56.470Z,2.60
2019-02-27T02:05:27.461Z,2.50
2019-02-27T02:07:56.109Z,2.50
2019-02-27T02:10:28.095Z,2.50
2019-02-27T02:13:15.117Z,2.50
2019-02-27T02:15:54.876Z,2.50
2019-02-27T02:18:45.780Z,2.50
2019-02-27T02:21:32.093Z,2.50
2019-02-27T02:24:27.403Z,2.60
2019-02-27T02:27:20.115Z,2.70
2019-02-27T02:30:14.139Z,2.80
2019-02-27T02:32:52.070Z,2.80
2019-02-27T02:35:27.755Z,2.70
2019-02-27T02:38:14.451Z,2.60
2019-02-27T02:41:08.307Z,2.50
2019-02-27T02:43:56.700Z,2.50
2019-02-27T02:46:45.316Z,2.40
2019-02-27T02:49:28.510Z,2.30
2019-02-27T02:52:17.904Z,2.20
2019-02-27T02:54:58.336Z,2.10
2019-02-27T02:57:47.851Z,2.10
2019-02-27T03:00:39.046Z,2.00
2019-02-27T03:03:21.452Z,2.00
2019-02-27T03:06:14.022Z,2.00
2019-02-27T03:09:04.011Z,1.90
2019-02-27T03:11:54.866Z,1.80
2019-02-27T03:14:44.584Z,1.80
2019-02-27T03:17:53.767Z,1.70
2019-02-27T03:20:42.144Z,1.70
2019-02-27T03:23:39.489Z,1.60
2019-02-27T03:26:16.433Z,1.60
2019-02-27T03:29:04.071Z,1.50
2019-02-27T03:31:57.956Z,1.50
2019-02-27T03:34:48.375Z,1.60
2019-02-27T03:37:25.663Z,1.50
2019-02-27T03:40:30.819Z,1.50
2019-02-27T03:43:10.481Z,1.50
2019-02-27T03:45:41.723Z,1.50
2019-02-27T03:48:16.383Z,1.50
2019-02-27T03:50:59.939Z,1.40
2019-02-27T03:53:47.219Z,1.40
2019-02-27T03:56:54.958Z,1.40
2019-02-27T03:59:42.711Z,1.40
2019-02-27T04:02:42.045Z,1.40
2019-02-27T04:05:17.084Z,1.40
2019-02-27T04:08:15.530Z,1.40
2019-02-27T04:10:44.087Z,1.40
2019-02-27T04:13:12.551Z,1.40
2019-02-27T04:15:41.175Z,1.40
2019-02-27T04:18:08.638Z,1.30
2019-02-27T04:20:37.201Z,1.30
2019-02-27T04:23:11.172Z,1.30
2019-02-27T04:25:36.311Z,1.20
2019-02-27T04:28:04.899Z,1.20
2019-02-27T04:30:33.430Z,1.20
2019-02-27T04:33:01.918Z,1.10
2019-02-27T04:35:30.379Z,1.10
2019-02-27T04:37:58.891Z,1.10
2019-02-27T04:40:27.351Z,1.10
2019-02-27T04:42:56.998Z,1.00
2019-02-27T04:45:26.039Z,1.00
2019-02-27T04:47:54.562Z,0.90
2019-02-27T04:50:23.044Z,0.80
2019-02-27T04:52:51.503Z,0.70
2019-02-27T04:55:19.982Z,0.70
2019-02-27T04:57:48.463Z,0.60
2019-02-27T05:00:17.263Z,0.60
2019-02-27T05:02:45.755Z,0.50
2019-02-27T05:05:14.218Z,0.50
2019-02-27T05:07:42.755Z,0.50
2019-02-27T05:10:11.312Z,0.50
2019-02-27T05:12:39.878Z,0.60
2019-02-27T05:15:09.274Z,0.60
2019-02-27T05:17:37.759Z,0.60
2019-02-27T05:20:11.581Z,0.60
2019-02-27T05:22:38.736Z,0.60
2019-02-27T05:25:07.258Z,0.70
2019-02-27T05:27:35.815Z,0.70
2019-02-27T05:30:06.756Z,0.70
2019-02-27T05:32:35.254Z,0.70
2019-02-27T05:35:04.183Z,0.70
2019-02-27T05:37:32.719Z,0.70
2019-02-27T05:40:01.203Z,0.80
2019-02-27T05:42:29.664Z,0.80
2019-02-27T05:44:58.235Z,0.80
2019-02-27T05:47:26.694Z,0.70
2019-02-27T05:49:55.154Z,0.70
2019-02-27T05:52:23.639Z,0.80
2019-02-27T05:54:52.098Z,0.80
2019-02-27T05:57:21.044Z,0.80
2019-02-27T05:59:50.846Z,0.80
2019-02-27T06:02:19.425Z,0.80
2019-02-27T06:04:47.960Z,0.80
2019-02-27T06:07:18.713Z,0.80
2019-02-27T06:09:48.918Z,0.80
2019-02-27T06:12:16.879Z,0.80
2019-02-27T06:14:45.391Z,0.80
2019-02-27T06:17:13.848Z,0.90
2019-02-27T06:19:42.307Z,0.90
2019-02-27T06:22:10.865Z,0.90
2019-02-27T06:24:39.418Z,0.90
2019-02-27T06:27:07.920Z,0.90
2019-02-27T06:29:36.747Z,0.90
2019-02-27T06:32:05.207Z,0.90
2019-02-27T06:34:33.771Z,0.90
2019-02-27T06:37:02.322Z,1.00
2019-02-27T06:39:34.100Z,1.00
2019-02-27T06:42:01.027Z,1.10
2019-02-27T06:44:29.543Z,1.10
2019-02-27T06:46:58.016Z,1.20
2019-02-27T06:49:26.581Z,1.20
2019-02-27T06:51:55.068Z,1.30
2019-02-27T06:54:23.608Z,1.30
2019-02-27T06:56:52.095Z,1.50
2019-02-27T06:59:24.797Z,1.50
2019-02-27T07:01:50.875Z,2.00
2019-02-27T07:04:19.411Z,2.80
2019-02-27T07:06:47.979Z,3.60
2019-02-27T07:09:16.447Z,4.80
2019-02-27T07:11:46.230Z,6.10
2019-02-27T07:14:15.211Z,7.30
2019-02-27T07:16:43.691Z,8.40
2019-02-27T07:19:13.191Z,9.50
2019-02-27T07:21:42.507Z,10.30
2019-02-27T07:24:11.235Z,10.50
2019-02-27T07:26:39.771Z,11.20
2019-02-27T07:29:08.284Z,12.10
2019-02-27T07:31:36.759Z,13.00
2019-02-27T07:34:05.312Z,14.30
2019-02-27T07:36:36.003Z,14.90
2019-02-27T07:39:05.351Z,15.50
2019-02-27T07:41:33.915Z,16.40
2019-02-27T07:44:02.383Z,17.50
2019-02-27T07:46:30.883Z,18.20
2019-02-27T07:49:01.392Z,19.00
2019-02-27T07:51:29.571Z,19.70
2019-02-27T07:53:58.067Z,20.30
2019-02-27T07:56:26.531Z,20.60
2019-02-27T07:58:54.998Z,21.10
2019-02-27T08:01:24.206Z,21.50
2019-02-27T08:03:52.751Z,21.70
2019-02-27T08:06:23.370Z,21.40
2019-02-27T08:08:51.507Z,21.10
2019-02-27T08:11:20.053Z,21.10
2019-02-27T08:13:48.618Z,21.10
2019-02-27T08:16:17.088Z,21.30
2019-02-27T08:18:45.718Z,22.20
2019-02-27T08:21:14.187Z,22.80
2019-02-27T08:23:42.778Z,22.90
2019-02-27T08:26:11.386Z,22.90
2019-02-27T08:28:39.953Z,23.40
2019-02-27T08:31:08.515Z,23.80
2019-02-27T08:33:37.003Z,23.70
2019-02-27T08:36:05.467Z,23.90
2019-02-27T08:38:34.143Z,23.90
2019-02-27T08:41:02.611Z,23.60
2019-02-27T08:43:31.150Z,23.20
2019-02-27T08:46:02.095Z,23.30
2019-02-27T08:48:30.211Z,23.10
2019-02-27T08:50:58.775Z,23.30
2019-02-27T08:53:27.267Z,23.40
2019-02-27T08:55:55.871Z,23.80
2019-02-27T08:58:26.748Z,24.20
2019-02-27T09:00:54.771Z,24.30
2019-02-27T09:03:23.415Z,24.50
2019-02-27T09:05:53.695Z,24.80
2019-02-27T09:08:22.107Z,24.20
2019-02-27T09:10:50.643Z,23.50
2019-02-27T09:13:19.134Z,23.40
2019-02-27T09:15:47.600Z,23.30
2019-02-27T09:18:16.179Z,23.50
2019-02-27T09:20:44.706Z,24.20
2019-02-27T09:23:13.275Z,24.00
2019-02-27T09:25:42.396Z,23.70
2019-02-27T09:28:11.060Z,23.80
2019-02-27T09:30:39.666Z,24.70
2019-02-27T09:33:08.423Z,25.00
2019-02-27T09:35:38.717Z,25.50
2019-02-27T09:38:08.707Z,24.90
2019-02-27T09:40:39.010Z,24.00
2019-02-27T09:43:07.787Z,23.80
2019-02-27T09:45:36.468Z,24.30
2019-02-27T09:48:05.393Z,25.60
2019-02-27T09:50:37.012Z,26.20
2019-02-27T09:53:05.834Z,26.60
2019-02-27T09:55:34.714Z,26.20
2019-02-27T09:58:03.518Z,26.00
2019-02-27T10:00:34.500Z,25.80
2019-02-27T10:03:03.051Z,26.40
2019-02-27T10:05:36.240Z,26.90
2019-02-27T10:08:02.031Z,27.30
2019-02-27T10:10:30.580Z,27.20
2019-02-27T10:12:59.920Z,27.20
2019-02-27T10:15:28.552Z,26.90
2019-02-27T10:17:57.168Z,27.20
2019-02-27T10:20:25.918Z,27.80
2019-02-27T10:22:56.502Z,27.80
2019-02-27T10:25:24.790Z,27.30
2019-02-27T10:27:53.423Z,27.20
2019-02-27T10:30:22.062Z,26.80
2019-02-27T10:32:50.563Z,25.30
2019-02-27T10:35:19.092Z,25.80
2019-02-27T10:37:50.465Z,26.50
2019-02-27T10:40:20.447Z,26.70
2019-02-27T10:42:50.339Z,26.40
2019-02-27T10:45:19.408Z,26.20
2019-02-27T10:47:47.903Z,26.50
2019-02-27T10:50:16.643Z,27.20
2019-02-27T10:52:45.115Z,27.40
2019-02-27T10:55:15.606Z,27.40
2019-02-27T10:57:44.171Z,27.80
2019-02-27T11:00:33.760Z,27.30
2019-02-27T11:03:02.669Z,26.60
2019-02-27T11:05:33.551Z,26.90
2019-02-27T11:08:02.267Z,26.40
2019-02-27T11:10:30.875Z,25.80
2019-02-27T11:12:59.697Z,24.90
2019-02-27T11:15:28.331Z,24.10
2019-02-27T11:17:56.900Z,23.10
2019-02-27T11:20:25.372Z,22.20
2019-02-27T11:22:53.850Z,21.10
2019-02-27T11:25:32.166Z,20.30
2019-02-27T11:28:00.730Z,19.30
2019-02-27T11:30:40.359Z,18.50
2019-02-27T11:33:08.897Z,18.10
2019-02-27T11:35:37.460Z,17.80
2019-02-27T11:38:06.532Z,17.50
2019-02-27T11:40:35.072Z,17.30
2019-02-27T11:43:06.291Z,17.20
2019-02-27T11:45:33.847Z,17.10
2019-02-27T11:48:02.491Z,17.00
2019-02-27T11:50:31.023Z,17.10
2019-02-27T11:53:02.825Z,17.10
2019-02-27T11:55:29.947Z,17.10
2019-02-27T11:57:58.479Z,17.00
2019-02-27T12:00:28.883Z,17.00
2019-02-27T12:02:58.119Z,17.00
2019-02-27T12:05:31.384Z,16.90
2019-02-27T12:07:58.071Z,17.10
2019-02-27T12:10:31.074Z,17.30
2019-02-27T12:13:01.175Z,17.30
2019-02-27T12:15:30.148Z,17.20
2019-02-27T12:18:00.607Z,17.20
2019-02-27T12:20:29.191Z,17.30
2019-02-27T12:22:57.756Z,17.40
2019-02-27T12:25:29.150Z,17.50
2019-02-27T12:27:56.878Z,17.60
2019-02-27T12:30:30.378Z,17.70
2019-02-27T12:32:58.994Z,17.80
2019-02-27T12:35:35.510Z,17.90
2019-02-27T12:38:08.221Z,18.00
2019-02-27T12:40:35.270Z,18.00
2019-02-27T12:43:03.916Z,17.90
2019-02-27T12:45:32.641Z,17.90
2019-02-27T12:48:01.344Z,17.90
2019-02-27T12:50:31.425Z,17.90
2019-02-27T12:53:00.348Z,17.80
2019-02-27T12:55:29.232Z,17.70
2019-02-27T12:57:57.791Z,17.70
2019-02-27T13:00:30.928Z,17.70
2019-02-27T13:02:59.647Z,17.50
2019-02-27T13:05:28.696Z,17.50
2019-02-27T13:07:57.513Z,17.50
2019-02-27T13:10:26.999Z,17.40
2019-02-27T13:12:55.950Z,17.50
2019-02-27T13:15:26.767Z,17.50
2019-02-27T13:17:57.404Z,17.60
2019-02-27T13:20:28.520Z,17.70
2019-02-27T13:22:57.173Z,17.80
2019-02-27T13:25:26.059Z,17.80
2019-02-27T13:27:54.692Z,17.80
2019-02-27T13:30:24.430Z,17.80
2019-02-27T13:32:53.108Z,17.90
2019-02-27T13:35:22.984Z,17.90
2019-02-27T13:37:52.519Z,17.90
2019-02-27T13:40:29.199Z,17.90
2019-02-27T13:42:57.899Z,17.90
2019-02-27T13:45:28.707Z,18.00
2019-02-27T13:47:58.965Z,18.00
2019-02-27T13:50:27.866Z,18.10
2019-02-27T13:52:58.255Z,18.10
2019-02-27T13:55:26.869Z,18.00
2019-02-27T13:57:58.941Z,18.00
2019-02-27T14:00:33.525Z,18.10
2019-02-27T14:03:02.090Z,18.10
2019-02-27T14:05:35.139Z,18.20
2019-02-27T14:08:00.858Z,18.10
2019-02-27T14:10:31.584Z,18.10
2019-02-27T14:13:00.318Z,18.20
2019-02-27T14:15:28.899Z,18.30
2019-02-27T14:17:57.506Z,18.30
2019-02-27T14:20:27.046Z,18.20
2019-02-27T14:22:55.951Z,18.30
2019-02-27T14:25:32.592Z,18.30
2019-02-27T14:27:59.470Z,18.30
2019-02-27T14:30:30.904Z,18.30
2019-02-27T14:32:59.443Z,18.30
2019-02-27T14:35:27.935Z,18.30
2019-02-27T14:37:56.474Z,18.40
2019-02-27T14:40:25.139Z,18.40
2019-02-27T14:42:54.828Z,18.30
2019-02-27T14:45:25.173Z,18.30
2019-02-27T14:47:53.870Z,18.30
2019-02-27T14:50:23.655Z,18.30
2019-02-27T14:52:52.451Z,18.30
2019-02-27T14:55:22.159Z,18.30
2019-02-27T14:57:51.520Z,18.20
2019-02-27T15:00:28.927Z,18.30
2019-02-27T15:02:57.634Z,18.20
2019-02-27T15:05:26.548Z,18.30
2019-02-27T15:07:55.406Z,18.30
2019-02-27T15:10:24.478Z,18.30
2019-02-27T15:12:55.039Z,18.20
2019-02-27T15:15:31.404Z,18.20
2019-02-27T15:18:00.831Z,18.20
2019-02-27T15:20:31.332Z,18.10
2019-02-27T15:22:59.939Z,18.10
2019-02-27T15:25:28.503Z,18.10
2019-02-27T15:27:58.744Z,18.10
2019-02-27T15:30:32.031Z,18.10
2019-02-27T15:33:03.867Z,18.00
2019-02-27T15:35:30.786Z,18.00
2019-02-27T15:37:59.579Z,17.90
2019-02-27T15:40:30.157Z,17.90
2019-02-27T15:42:58.938Z,17.90
2019-02-27T15:45:28.470Z,17.80
2019-02-27T15:47:57.202Z,17.80
2019-02-27T15:50:33.403Z,17.80
2019-02-27T15:53:02.115Z,17.80
2019-02-27T15:55:34.166Z,17.70
2019-02-27T15:58:01.011Z,17.70
2019-02-27T16:00:29.911Z,17.60
2019-02-27T16:03:00.018Z,17.50
2019-02-27T16:05:31.435Z,17.50
2019-02-27T16:07:59.026Z,17.40
2019-02-27T16:10:28.360Z,17.40
2019-02-27T16:12:59.836Z,17.40
2019-02-27T16:15:27.326Z,17.30
2019-02-27T16:17:55.900Z,17.20
2019-02-27T16:20:29.274Z,17.10
2019-02-27T16:23:04.344Z,17.00
2019-02-27T16:25:29.902Z,16.90
2019-02-27T16:27:58.487Z,16.80
2019-02-27T16:30:32.864Z,16.80
2019-02-27T16:33:01.771Z,16.70
2019-02-27T16:35:30.382Z,16.70
2019-02-27T16:37:58.882Z,16.60
2019-02-27T16:40:28.794Z,16.50
2019-02-27T16:42:57.463Z,16.40
2019-02-27T16:45:39.229Z,16.30
2019-02-27T16:48:07.883Z,16.30
2019-02-27T16:50:36.456Z,16.20
2019-02-27T16:53:05.087Z,16.00
2019-02-27T16:55:37.062Z,15.80
2019-02-27T16:58:04.081Z,15.70
2019-02-27T17:00:37.522Z,15.60
2019-02-27T17:03:06.259Z,15.40
2019-02-27T17:05:34.814Z,15.20
2019-02-27T17:08:03.358Z,14.90
2019-02-27T17:10:33.491Z,14.60
2019-02-27T17:13:02.031Z,14.40
2019-02-27T17:15:34.691Z,14.20
2019-02-27T17:18:01.413Z,14.00
2019-02-27T17:20:30.228Z,13.90
2019-02-27T17:22:58.794Z,13.70
2019-02-27T17:25:30.047Z,13.50
2019-02-27T17:27:57.684Z,13.40
2019-02-27T17:30:28.898Z,13.20
2019-02-27T17:32:57.815Z,13.20
2019-02-27T17:35:26.473Z,13.10
2019-02-27T17:37:55.033Z,13.10
2019-02-27T17:40:23.577Z,13.00
2019-02-27T17:42:53.497Z,13.00
2019-02-27T17:45:27.204Z,12.90
2019-02-27T17:47:55.739Z,12.80
2019-02-27T17:50:24.571Z,12.80
2019-02-27T17:52:53.316Z,12.70
2019-02-27T17:55:21.963Z,12.60
2019-02-27T17:57:50.567Z,12.50
2019-02-27T18:00:28.195Z,12.30
2019-02-27T18:02:56.106Z,12.30
2019-02-27T18:05:25.296Z,12.20
2019-02-27T18:07:54.815Z,12.00
2019-02-27T18:10:23.437Z,11.70
2019-02-27T18:12:52.176Z,11.50
2019-02-27T18:15:22.154Z,11.40
2019-02-27T18:17:50.792Z,11.30
2019-02-27T18:20:24.409Z,11.30
2019-02-27T18:22:50.606Z,11.20
2019-02-27T18:25:19.517Z,11.20
2019-02-27T18:27:48.204Z,11.10
2019-02-27T18:30:24.167Z,11.00
2019-02-27T18:32:52.799Z,10.90
2019-02-27T18:35:21.542Z,10.70
2019-02-27T18:37:53.619Z,10.50
2019-02-27T18:40:21.136Z,10.40
2019-02-27T18:42:55.186Z,10.20
2019-02-27T18:45:29.576Z,10.10
2019-02-27T18:47:58.897Z,10.00
2019-02-27T18:50:27.664Z,9.80
2019-02-27T18:52:56.299Z,9.70
2019-02-27T18:55:29.205Z,9.60
2019-02-27T18:57:56.351Z,9.40
2019-02-27T19:00:26.331Z,9.30
2019-02-27T19:03:07.203Z,9.30
2019-02-27T19:05:38.229Z,9.20
2019-02-27T19:08:06.245Z,9.20
2019-02-27T19:10:34.920Z,9.10
2019-02-27T19:13:03.554Z,9.00
2019-02-27T19:15:32.203Z,9.00
2019-02-27T19:18:00.754Z,9.00
2019-02-27T19:21:00.957Z,8.90
2019-02-27T19:23:29.626Z,8.90
2019-02-27T19:25:58.290Z,8.70
2019-02-27T19:28:27.102Z,8.70
2019-02-27T19:30:55.815Z,8.60
2019-02-27T19:33:24.355Z,8.50
2019-02-27T19:35:55.923Z,8.50
2019-02-27T19:38:23.350Z,8.50
2019-02-27T19:40:51.977Z,8.40
2019-02-27T19:43:21.745Z,8.30
2019-02-27T19:45:50.340Z,8.20
2019-02-27T19:48:18.911Z,8.20
2019-02-27T19:50:47.447Z,8.30
2019-02-27T19:53:15.954Z,8.30
2019-02-27T19:55:44.494Z,8.30
2019-02-27T19:58:17.246Z,8.20
2019-02-27T20:00:48.428Z,8.10
2019-02-27T20:03:13.807Z,8.10
2019-02-27T20:05:42.515Z,7.90
2019-02-27T20:08:11.631Z,7.80
2019-02-27T20:10:40.234Z,7.70
2019-02-27T20:13:09.259Z,7.60
2019-02-27T20:15:38.183Z,7.50
2019-02-27T20:18:08.437Z,7.50
2019-02-27T20:20:40.934Z,7.50
2019-02-27T20:23:07.676Z,7.50
2019-02-27T20:25:36.244Z,7.40
2019-02-27T20:28:04.871Z,7.30
2019-02-27T20:30:33.342Z,7.20
2019-02-27T20:33:02.538Z,7.10
2019-02-27T20:35:31.788Z,7.10
2019-02-27T20:38:01.655Z,7.00
2019-02-27T20:40:33.939Z,7.00
2019-02-27T20:43:00.959Z,7.00
2019-02-27T20:45:29.499Z,6.90
2019-02-27T20:48:01.707Z,6.80
2019-02-27T20:50:37.547Z,6.70
2019-02-27T20:53:07.477Z,6.60
2019-02-27T20:55:36.023Z,6.40
2019-02-27T20:58:04.814Z,6.30
2019-02-27T21:00:36.568Z,6.20
2019-02-27T21:03:03.707Z,6.10
2019-02-27T21:05:32.545Z,6.10
2019-02-27T21:08:02.386Z,6.00
2019-02-27T21:10:32.860Z,5.90
2019-02-27T21:13:01.570Z,5.80
2019-02-27T21:15:32.541Z,5.80
2019-02-27T21:18:00.710Z,5.70
2019-02-27T21:20:29.303Z,5.70
2019-02-27T21:22:59.972Z,5.60
2019-02-27T21:25:28.271Z,5.50
2019-02-27T21:27:56.938Z,5.50
2019-02-27T21:30:26.174Z,5.40
2019-02-27T21:32:54.716Z,5.30
2019-02-27T21:35:26.245Z,5.20
2019-02-27T21:37:53.478Z,5.20
2019-02-27T21:40:22.018Z,5.10
2019-02-27T21:42:51.210Z,5.10
2019-02-27T21:45:21.968Z,5.20
2019-02-27T21:47:51.746Z,5.20
2019-02-27T21:50:23.370Z,5.30
2019-02-27T21:52:54.281Z,5.30
2019-02-27T21:55:22.237Z,5.30
2019-02-27T21:57:50.791Z,5.30
2019-02-27T22:00:22.476Z,5.30
2019-02-27T22:02:51.387Z,5.40
2019-02-27T22:05:20.189Z,5.40
2019-02-27T22:07:48.791Z,5.40
2019-02-27T22:10:19.734Z,5.30
2019-02-27T22:12:48.071Z,5.20
2019-02-27T22:15:22.894Z,5.10
2019-02-27T22:17:49.632Z,5.00
2019-02-27T22:20:18.271Z,4.90
2019-02-27T22:22:46.806Z,4.90
2019-02-27T22:25:15.454Z,4.90
2019-02-27T22:27:45.899Z,4.90
2019-02-27T22:30:19.191Z,5.00
2019-02-27T22:32:48.680Z,5.00
2019-02-27T22:35:17.479Z,5.00
2019-02-27T22:37:50.991Z,4.90
2019-02-27T22:40:21.159Z,4.90
2019-02-27T22:42:49.898Z,4.90
2019-02-27T22:45:19.405Z,4.80
2019-02-27T22:47:49.102Z,4.80
2019-02-27T22:50:18.874Z,4.70
2019-02-27T22:52:47.438Z,4.60
2019-02-27T22:55:15.970Z,4.60
2019-02-27T22:57:44.542Z,4.60
2019-02-27T23:00:48.819Z,4.60
2019-02-27T23:03:17.413Z,4.60
2019-02-27T23:05:46.014Z,4.50
2019-02-27T23:08:14.475Z,4.50
2019-02-27T23:10:43.142Z,4.40
2019-02-27T23:13:12.685Z,4.40
2019-02-27T23:15:41.862Z,4.40
2019-02-27T23:18:10.382Z,4.30
2019-02-27T23:20:38.847Z,4.30
2019-02-27T23:23:07.327Z,4.30
2019-02-27T23:25:36.018Z,4.20
2019-02-27T23:28:04.478Z,4.20
2019-02-27T23:30:33.147Z,4.20
2019-02-27T23:33:02.326Z,4.20
2019-02-27T23:35:31.591Z,4.10
2019-02-27T23:38:03.064Z,4.00
2019-02-27T23:40:30.418Z,4.00
2019-02-27T23:43:02.328Z,3.80
2019-02-27T23:45:29.495Z,3.80
2019-02-27T23:47:59.236Z,3.80
2019-02-27T23:50:28.248Z,3.70
2019-02-27T23:52:56.835Z,3.80
2019-02-27T23:55:26.390Z,3.80
2019-02-27T23:57:57.564Z,3.80
